TimeEST,TemperatureF,Dew PointF,Humidity,Sea Level PressureIn,VisibilityMPH,Wind Direction,Wind SpeedMPH,Gust SpeedMPH,PrecipitationIn,Events,Conditions,WindDirDegrees,DateUTC
12:15 AM,32.2,30.2,92,30.29,10.0,SE,10.4,16.1,N/A,,Overcast,130,2012-12-01 05:15:00
12:35 AM,32.4,30.2,92,30.30,10.0,ESE,10.4,-,N/A,,Overcast,120,2012-12-01 05:35:00
1:15 AM,32.4,30.7,94,30.28,10.0,ESE,9.2,-,N/A,,Overcast,120,2012-12-01 06:15:00
1:35 AM,32.4,30.9,94,30.29,10.0,SE,8.1,-,N/A,,Overcast,130,2012-12-01 06:35:00
1:55 AM,32.4,31.1,95,30.28,10.0,ESE,9.2,-,N/A,,Overcast,120,2012-12-01 06:55:00
2:14 AM,32.4,31.1,95,30.28,7.0,ESE,8.1,-,N/A,,Overcast,120,2012-12-01 07:14:00
2:35 AM,32.4,30.9,94,30.28,7.0,ESE,10.4,-,N/A,,Overcast,120,2012-12-01 07:35:00
3:15 AM,32.7,31.1,94,30.28,7.0,ESE,10.4,-,N/A,,Overcast,120,2012-12-01 08:15:00
4:34 AM,32.9,31.1,93,30.25,7.0,ESE,9.2,-,N/A,,Overcast,120,2012-12-01 09:34:00
5:15 AM,32.9,31.1,93,30.23,7.0,ESE,10.4,-,N/A,,Overcast,120,2012-12-01 10:15:00
5:35 AM,32.9,31.1,93,30.22,7.0,ESE,11.5,17.3,N/A,,Overcast,120,2012-12-01 10:35:00
6:15 AM,33.4,31.1,91,30.22,7.0,ESE,9.2,-,N/A,,Overcast,120,2012-12-01 11:15:00
7:34 AM,34.0,31.6,91,30.21,7.0,ESE,9.2,-,N/A,,Overcast,110,2012-12-01 12:34:00
8:15 AM,34.2,31.8,91,30.21,5.0,SE,4.6,-,N/A,,Overcast,130,2012-12-01 13:15:00
8:35 AM,34.3,32.0,91,30.19,5.0,SE,8.1,-,N/A,,Overcast,130,2012-12-01 13:35:00
8:56 AM,34.7,32.0,90,30.18,5.0,SE,8.1,-,N/A,,Overcast,130,2012-12-01 13:56:00
9:15 AM,34.9,32.0,89,30.18,5.0,SE,10.4,17.3,N/A,,Overcast,130,2012-12-01 14:15:00
9:35 AM,34.9,32.0,89,30.17,5.0,SE,9.2,-,N/A,,Overcast,140,2012-12-01 14:35:00
9:55 AM,35.1,32.0,89,30.17,5.0,SE,10.4,16.1,N/A,,Overcast,130,2012-12-01 14:55:00
10:15 AM,35.6,32.0,87,30.16,5.0,SE,10.4,17.3,N/A,,Overcast,140,2012-12-01 15:15:00
10:35 AM,35.6,32.0,87,30.16,5.0,SE,11.5,-,N/A,,Overcast,140,2012-12-01 15:35:00
10:55 AM,36.1,32.0,85,30.15,5.0,SE,11.5,16.1,N/A,,Mostly Cloudy,140,2012-12-01 15:55:00
11:15 AM,36.1,32.0,85,30.14,5.0,SE,10.4,-,N/A,,Mostly Cloudy,140,2012-12-01 16:15:00
11:35 AM,36.1,32.0,85,30.13,7.0,SE,6.9,-,N/A,,Scattered Clouds,140,2012-12-01 16:35:00
11:55 AM,36.5,32.0,84,30.12,7.0,SE,6.9,-,N/A,,Clear,140,2012-12-01 16:55:00
12:15 PM,36.7,32.0,83,30.11,7.0,SE,6.9,-,N/A,,Mostly Cloudy,140,2012-12-01 17:15:00
12:35 PM,37.0,32.0,82,30.10,7.0,SSE,9.2,-,N/A,,Overcast,150,2012-12-01 17:35:00
12:55 PM,37.4,32.0,81,30.09,7.0,SE,9.2,-,N/A,,Overcast,140,2012-12-01 17:55:00
1:15 PM,37.6,32.0,80,30.07,7.0,SSE,9.2,-,N/A,,Scattered Clouds,150,2012-12-01 18:15:00
1:36 PM,37.8,32.0,80,30.07,7.0,SE,4.6,-,N/A,,Scattered Clouds,140,2012-12-01 18:36:00
1:55 PM,37.8,32.0,80,30.06,7.0,SE,6.9,-,N/A,,Overcast,140,2012-12-01 18:55:00
2:15 PM,37.9,32.0,79,30.06,7.0,SE,8.1,-,N/A,,Scattered Clouds,130,2012-12-01 19:15:00
2:36 PM,37.9,32.2,80,30.05,7.0,SSE,9.2,-,N/A,,Clear,150,2012-12-01 19:36:00
2:55 PM,38.3,32.4,79,30.04,7.0,SE,5.8,-,N/A,,Clear,140,2012-12-01 19:55:00
3:15 PM,38.3,32.7,80,30.03,7.0,SE,5.8,-,N/A,,Scattered Clouds,140,2012-12-01 20:15:00
3:35 PM,38.1,32.7,81,30.02,7.0,SE,6.9,-,N/A,,Scattered Clouds,140,2012-12-01 20:35:00
4:15 PM,37.8,32.9,83,30.00,7.0,SE,5.8,-,N/A,,Clear,140,2012-12-01 21:15:00
4:35 PM,37.6,32.9,83,30.00,7.0,SSE,5.8,-,N/A,,Clear,150,2012-12-01 21:35:00
4:55 PM,37.4,32.9,84,30.00,7.0,SSE,8.1,-,N/A,,Clear,160,2012-12-01 21:55:00
5:15 PM,37.0,32.9,85,29.99,7.0,SSE,6.9,-,N/A,,Clear,150,2012-12-01 22:15:00
5:34 PM,36.9,32.9,86,29.97,7.0,SE,11.5,-,N/A,,Clear,140,2012-12-01 22:34:00
6:12 PM,37.4,33.8,87,29.96,7.0,SE,8.1,-,N/A,,Mostly Cloudy,140,2012-12-01 23:12:00
6:55 PM,37.6,34.2,87,29.93,7.0,ESE,8.1,-,N/A,,Overcast,110,2012-12-01 23:55:00
7:15 PM,37.6,34.3,88,29.93,7.0,SE,6.9,-,N/A,,Overcast,130,2012-12-02 00:15:00
7:35 PM,37.8,34.7,89,29.93,7.0,SE,4.6,-,N/A,,Overcast,140,2012-12-02 00:35:00
7:55 PM,37.9,35.2,90,29.92,5.0,ESE,4.6,-,N/A,,Overcast,120,2012-12-02 00:55:00
8:15 PM,38.7,36.5,92,29.90,5.0,SE,5.8,-,N/A,,Overcast,130,2012-12-02 01:15:00
8:35 PM,40.3,38.1,92,29.89,5.0,SSE,8.1,-,N/A,,Overcast,150,2012-12-02 01:35:00
8:55 PM,41.2,39.2,93,29.88,3.0,SSE,12.7,17.3,N/A,Rain,Light Rain,160,2012-12-02 01:55:00
9:12 PM,41.2,39.6,94,29.87,4.0,SSE,11.5,-,N/A,,Overcast,160,2012-12-02 02:12:00
9:34 PM,41.5,40.1,95,29.87,4.0,SSE,12.7,18.4,N/A,,Overcast,160,2012-12-02 02:34:00
9:55 PM,41.5,40.1,95,29.86,4.0,South,11.5,16.1,N/A,,Drizzle,170,2012-12-02 02:55:00
10:14 PM,41.9,40.5,95,29.85,4.0,South,10.4,-,N/A,Rain,Light Rain,170,2012-12-02 03:14:00
10:35 PM,42.3,41.0,95,29.84,3.0,South,10.4,17.3,N/A,Rain,Light Rain,180,2012-12-02 03:35:00
10:54 PM,43.7,42.3,95,29.84,3.0,South,11.5,18.4,N/A,Rain,Light Rain,180,2012-12-02 03:54:00
11:14 PM,45.0,43.7,95,29.83,4.0,South,10.4,16.1,N/A,Rain,Light Rain,180,2012-12-02 04:14:00
11:35 PM,45.0,43.7,95,29.82,3.0,South,6.9,-,N/A,Rain,Light Rain,180,2012-12-02 04:35:00
11:54 PM,45.7,44.8,97,29.82,2.0,South,12.7,-,N/A,,Overcast,190,2012-12-02 04:54:00